Flight Briefing for CPX427

Departure Arrival
El Paso International Airport (KELP)
Click to view FAA NOTAMS
Tulsa International Airport (KTUL)
Click to view FAA NOTAMS
Departure Time Arrival Time
N/A N/A
Aircraft Distance
B757-200SF 585nm
Departure METAR Arrival METAR
KELP 192251Z 26020G27KT 10SM SCT055 SCT080 BKN100 BKN130 07/M06 A2985 RMK AO2 PK WND 25027/2250 SLP093 SHRA DSNT N AND NE T00721061 KTUL 192327Z 34005KT 1 3/4SM -DZ BR FEW005 OVC020 01/00 A3001 RMK AO2 RAE26DZB26 P0001 T00060000
Suggested Route
TDOWN3 TDOWN SFL HOMET SPS IRW


View recent IFR Routes data
Notes



Charts and Procedures

Charts for KELP
No chart available
Charts for KTUL
No chart available

Ventusky Weather




{"cat":null,"equip":null,"transponder":null,"pbn":"PBN\/","maxpax":null,"oew":"0.0","mzfw":"0.0","mtow":"0.0","mlw":"0.0","maxfuel":"0.0"} DEVELOPMENTAL TEST USE ONLY